Time;durP1;ratioP1;P1;durP2;ratioP2;P2;SDS_P1;SDS_P2;PMS_P1;PMS_P2;Temp;Humidity;BMP_temperature;BMP_pressure;BME280_temperature;BME280_humidity;BME280_pressure;Samples;Min_cycle;Max_cycle;Signal;HPM_P1;HPM_P2
2022/10/11 00:02:17;;;;;;;0.00;0.00;;;;;;;11.93;69.79;102090.25;7365289;19;20015;-62
2022/10/11 00:04:42;;;;;;;0.00;0.00;;;;;;;11.98;70.26;102108.56;7361726;19;20533;-62
2022/10/11 00:07:08;;;;;;;0.00;0.00;;;;;;;11.94;70.74;102092.00;7363857;19;20018;-62
2022/10/11 00:09:33;;;;;;;0.00;0.00;;;;;;;12.00;70.42;102106.78;7362944;19;20010;-62
2022/10/11 00:11:59;;;;;;;0.00;0.00;;;;;;;12.05;69.79;102097.16;7362494;19;20681;-62
2022/10/11 00:14:25;;;;;;;0.00;0.00;;;;;;;12.08;70.22;102101.50;7363998;19;20045;-62
2022/10/11 00:16:51;;;;;;;0.10;0.10;;;;;;;11.78;70.22;102039.72;7363936;19;20010;-62
2022/10/11 00:19:17;;;;;;;0.00;0.00;;;;;;;12.03;70.67;102096.31;7363885;19;20007;-62
2022/10/11 00:21:43;;;;;;;0.00;0.00;;;;;;;11.97;70.79;102075.41;7361746;19;21422;-62
2022/10/11 00:24:09;;;;;;;0.05;0.05;;;;;;;12.10;70.70;102086.66;7363500;19;20014;-62
2022/10/11 00:26:35;;;;;;;0.00;0.00;;;;;;;12.16;70.81;102095.31;7362475;19;20716;-62
2022/10/11 00:29:00;;;;;;;0.00;0.00;;;;;;;12.17;69.98;102094.47;7364343;19;20097;-62
2022/10/11 00:31:25;;;;;;;0.00;0.00;;;;;;;12.20;70.61;102093.56;7362220;19;20026;-62
2022/10/11 00:33:52;;;;;;;0.00;0.00;;;;;;;12.16;70.41;102087.47;7363377;19;20019;-62
2022/10/11 00:36:18;;;;;;;0.00;0.00;;;;;;;12.26;70.77;102090.03;7359837;19;20026;-63
2022/10/11 00:38:45;;;;;;;0.00;0.00;;;;;;;12.28;70.61;102090.91;7364473;19;20586;-63
2022/10/11 00:41:11;;;;;;;0.00;0.00;;;;;;;12.30;70.25;102089.13;7360671;19;20029;-62
2022/10/11 00:43:37;;;;;;;0.00;0.00;;;;;;;12.32;69.34;102082.16;7363316;19;20508;-62
2022/10/11 00:46:17;;;;;;;0.00;0.00;;;;;;;12.36;69.19;102083.84;7362478;19;20007;-62
2022/10/11 00:49:04;;;;;;;0.00;0.00;;;;;;;12.29;69.66;102075.16;7361760;19;20591;-62
2022/10/11 00:51:58;;;;;;;0.00;0.00;;;;;;;12.36;68.90;102091.69;7359420;19;20014;-63
2022/10/11 00:54:27;;;;;;;0.00;0.00;;;;;;;12.33;69.48;102073.41;7255415;19;2004280;-62
2022/10/11 00:57:02;;;;;;;0.00;0.00;;;;;;;12.38;69.82;102077.72;7362659;19;20335;-63
2022/10/11 00:59:34;;;;;;;0.10;0.10;;;;;;;12.40;70.22;102077.69;7361529;19;20007;-62
2022/10/11 01:01:59;;;;;;;0.00;0.00;;;;;;;12.36;69.98;102068.97;7362054;19;20094;-62
2022/10/11 01:04:25;;;;;;;0.00;0.00;;;;;;;12.43;69.95;102081.16;7360407;19;20070;-62
2022/10/11 01:06:54;;;;;;;0.00;0.00;;;;;;;12.45;69.09;102073.28;7358902;19;20029;-62
2022/10/11 01:09:21;;;;;;;0.00;0.00;;;;;;;12.47;68.23;102074.16;7360359;19;20103;-62
2022/10/11 01:11:49;;;;;;;0.00;0.00;;;;;;;12.44;68.83;102076.78;7360078;19;20378;-62
2022/10/11 01:14:26;;;;;;;0.10;0.10;;;;;;;12.49;68.48;102080.25;7361925;19;21110;-63
2022/10/11 01:17:09;;;;;;;0.00;0.00;;;;;;;12.44;68.62;102071.56;7362523;19;20082;-62
2022/10/11 01:20:03;;;;;;;0.00;0.00;;;;;;;12.53;68.47;102075.84;7360931;19;20010;-62
2022/10/11 01:22:51;;;;;;;0.00;0.00;;;;;;;12.54;68.28;102086.31;7257168;19;2004306;-62
2022/10/11 01:25:32;;;;;;;0.00;0.00;;;;;;;12.52;68.91;102088.09;7257106;19;2004358;-62
2022/10/11 01:28:22;;;;;;;0.00;0.00;;;;;;;12.53;68.06;102087.22;7361418;19;20022;-63
2022/10/11 01:30:50;;;;;;;0.00;0.00;;;;;;;12.47;68.93;102071.53;7363217;19;20017;-62
2022/10/11 01:33:21;;;;;;;0.00;0.00;;;;;;;12.53;68.57;102088.97;7359335;19;20049;-62
2022/10/11 01:36:03;;;;;;;0.00;0.00;;;;;;;12.53;68.72;102092.44;7359866;19;20014;-62
2022/10/11 01:38:43;;;;;;;0.00;0.00;;;;;;;12.55;68.33;102089.81;7359376;19;20021;-62
2022/10/11 01:41:19;;;;;;;0.00;0.00;;;;;;;12.55;68.71;102095.03;7361994;19;20029;-62
2022/10/11 01:43:45;;;;;;;0.00;0.00;;;;;;;12.42;68.99;102071.56;7359896;19;20023;-62
2022/10/11 01:46:12;;;;;;;0.00;0.00;;;;;;;12.48;69.98;102072.41;7360997;19;20431;-62
2022/10/11 01:48:53;;;;;;;0.00;0.00;;;;;;;12.58;69.03;102079.31;7360508;19;20031;-62
2022/10/11 01:51:26;;;;;;;0.00;0.00;;;;;;;12.56;69.75;102079.28;7361070;19;20033;-62
2022/10/11 01:53:51;;;;;;;0.00;0.00;;;;;;;12.57;69.25;102078.44;7363202;19;20030;-62
2022/10/11 01:56:44;;;;;;;0.00;0.00;;;;;;;12.61;68.91;102076.63;7362341;19;20106;-63
2022/10/11 01:59:21;;;;;;;0.00;0.00;;;;;;;12.58;69.31;102080.16;7252200;19;2004407;-62
2022/10/11 02:02:24;;;;;;;0.00;0.00;;;;;;;12.62;69.05;102087.13;7362812;19;20010;-62
2022/10/11 02:04:54;;;;;;;0.00;0.00;;;;;;;12.59;69.18;102083.66;7261115;19;2004324;-62
2022/10/11 02:07:27;;;;;;;0.10;0.10;;;;;;;12.61;69.40;102082.75;7360299;19;20014;-62
2022/10/11 02:09:59;;;;;;;0.00;0.00;;;;;;;12.60;69.56;102078.41;7360752;19;20011;-62
2022/10/11 02:12:33;;;;;;;0.00;0.00;;;;;;;12.62;69.22;102076.66;7360300;19;20126;-62
2022/10/11 02:15:02;;;;;;;0.00;0.00;;;;;;;12.62;69.67;102081.88;7360630;19;20007;-62
2022/10/11 02:17:35;;;;;;;0.10;0.10;;;;;;;12.62;69.46;102076.66;7362776;19;20451;-62
2022/10/11 02:20:06;;;;;;;0.00;0.00;;;;;;;12.64;69.28;102080.09;7359933;19;20029;-62
2022/10/11 02:22:37;;;;;;;0.00;0.00;;;;;;;12.61;69.06;102074.88;7361534;19;20014;-62
2022/10/11 02:25:09;;;;;;;0.00;0.00;;;;;;;12.53;68.37;102044.41;7362255;19;20018;-63
2022/10/11 02:27:37;;;;;;;0.00;0.00;;;;;;;12.56;68.79;102062.72;7361634;19;20007;-63
2022/10/11 02:30:06;;;;;;;0.00;0.00;;;;;;;12.62;68.63;102058.31;7361580;19;20025;-63
2022/10/11 02:32:32;;;;;;;0.00;0.00;;;;;;;12.62;68.93;102060.03;7361705;19;21800;-62
2022/10/11 02:35:00;;;;;;;0.00;0.00;;;;;;;12.61;68.91;102059.16;7361632;19;20018;-62
2022/10/11 02:37:57;;;;;;;0.10;0.10;;;;;;;12.63;68.18;102057.41;7360222;19;20576;-62
2022/10/11 02:40:32;;;;;;;0.00;0.00;;;;;;;12.61;67.62;102053.06;7259070;19;2004693;-62
2022/10/11 02:43:09;;;;;;;0.00;0.00;;;;;;;12.55;67.38;102043.50;7360438;19;20733;-62
2022/10/11 02:45:42;;;;;;;0.00;0.00;;;;;;;12.59;67.88;102055.69;7360336;19;20031;-62
2022/10/11 02:48:10;;;;;;;0.00;0.00;;;;;;;12.58;67.40;102046.09;7362093;19;20811;-63
2022/10/11 02:50:38;;;;;;;0.00;0.00;;;;;;;12.57;68.33;102046.09;7360267;19;20010;-62
2022/10/11 02:53:03;;;;;;;0.00;0.00;;;;;;;12.36;68.13;102005.25;7360534;19;20018;-63
2022/10/11 02:55:29;;;;;;;0.10;0.10;;;;;;;12.46;68.58;102026.09;7365661;19;20037;-62
2022/10/11 02:57:55;;;;;;;0.00;0.00;;;;;;;12.53;68.63;102032.19;7363944;19;20010;-63
2022/10/11 03:00:20;;;;;;;0.00;0.00;;;;;;;12.57;67.28;102039.13;7367394;19;20018;-62
2022/10/11 03:02:46;;;;;;;0.10;0.10;;;;;;;12.56;68.22;102034.75;7365600;19;20727;-62
2022/10/11 03:05:11;;;;;;;0.00;0.00;;;;;;;12.56;66.77;102020.78;7361802;19;20010;-62
2022/10/11 03:07:36;;;;;;;0.05;0.05;;;;;;;12.56;66.49;102023.41;7367906;19;20015;-62
2022/10/11 03:10:03;;;;;;;0.00;0.00;;;;;;;12.56;66.34;102024.28;7364085;19;20007;-62
2022/10/11 03:12:28;;;;;;;0.00;0.00;;;;;;;12.39;66.66;101995.63;7366329;19;20863;-62
2022/10/11 03:14:54;;;;;;;0.10;0.10;;;;;;;12.52;66.71;102027.81;7367859;19;20014;-63
2022/10/11 03:17:19;;;;;;;0.00;0.00;;;;;;;12.51;66.93;102026.06;7366168;19;20002;-62
2022/10/11 03:19:45;;;;;;;0.00;0.00;;;;;;;12.30;66.94;101979.13;7364010;19;20040;-62
2022/10/11 03:22:10;;;;;;;0.00;0.00;;;;;;;12.40;66.90;102002.59;7366000;19;20015;-62
2022/10/11 03:24:36;;;;;;;0.00;0.00;;;;;;;12.48;66.81;102005.16;7363922;19;20031;-62
2022/10/11 03:27:01;;;;;;;0.00;0.00;;;;;;;12.36;66.39;101982.53;7367998;19;20022;-62
2022/10/11 03:29:26;;;;;;;0.00;0.00;;;;;;;12.49;66.92;102013.88;7366918;19;20014;-62
2022/10/11 03:31:52;;;;;;;0.00;0.00;;;;;;;12.27;66.76;101971.31;7367731;19;20010;-62
2022/10/11 03:34:17;;;;;;;0.00;0.00;;;;;;;12.45;67.03;101999.94;7365274;19;20022;-62
2022/10/11 03:36:43;;;;;;;0.00;0.00;;;;;;;12.41;67.19;101987.75;7367675;19;20762;-62
2022/10/11 03:39:08;;;;;;;0.00;0.00;;;;;;;12.31;67.63;101975.59;7367234;19;20015;-62
2022/10/11 03:41:33;;;;;;;0.00;0.00;;;;;;;12.48;67.77;102007.78;7362866;19;20015;-62
2022/10/11 03:43:59;;;;;;;0.00;0.00;;;;;;;12.36;67.59;101981.66;7367623;19;20706;-62
2022/10/11 03:46:24;;;;;;;0.00;0.00;;;;;;;12.50;67.16;102006.00;7367406;19;20017;-62
2022/10/11 03:48:50;;;;;;;0.10;0.10;;;;;;;12.36;67.05;101979.91;7367612;19;20014;-62
2022/10/11 03:51:15;;;;;;;0.00;0.00;;;;;;;12.51;66.70;102004.25;7367379;19;20007;-62
2022/10/11 03:53:40;;;;;;;0.05;0.05;;;;;;;12.50;67.17;101999.88;7368303;19;20030;-62
2022/10/11 03:56:07;;;;;;;0.00;0.00;;;;;;;12.44;67.18;101993.81;7362789;19;20082;-63
2022/10/11 03:58:32;;;;;;;0.00;0.00;;;;;;;12.35;66.97;101979.94;7367519;19;20744;-62
2022/10/11 04:00:57;;;;;;;0.10;0.10;;;;;;;12.34;66.84;101975.59;7365542;19;20010;-62
2022/10/11 04:03:23;;;;;;;0.10;0.10;;;;;;;12.49;66.26;102001.66;7366453;19;20029;-62
2022/10/11 04:05:48;;;;;;;0.05;0.05;;;;;;;12.34;66.25;101980.84;7364437;19;20014;-62
2022/10/11 04:08:14;;;;;;;0.00;0.00;;;;;;;12.45;66.11;102000.78;7367124;19;20006;-62
2022/10/11 04:10:39;;;;;;;0.00;0.00;;;;;;;12.48;66.50;102012.16;7365247;19;20006;-62
2022/10/11 04:13:05;;;;;;;0.00;0.00;;;;;;;12.46;66.29;102004.28;7366267;19;20018;-62
2022/10/11 04:15:31;;;;;;;0.00;0.00;;;;;;;12.46;65.72;102001.66;7364234;19;20017;-62
2022/10/11 04:17:56;;;;;;;0.00;0.00;;;;;;;12.45;64.83;101999.94;7365448;19;20011;-61
2022/10/11 04:20:22;;;;;;;0.00;0.00;;;;;;;12.33;66.07;101979.09;7365342;19;20014;-62
2022/10/11 04:22:47;;;;;;;0.00;0.00;;;;;;;12.40;66.17;101993.88;7368104;19;20073;-62
2022/10/11 04:25:12;;;;;;;0.03;0.03;;;;;;;12.29;65.34;101961.69;7364977;19;20010;-62
2022/10/11 04:27:38;;;;;;;0.00;0.00;;;;;;;12.39;65.65;101984.28;7367473;19;20010;-62
2022/10/11 04:30:04;;;;;;;0.00;0.00;;;;;;;12.38;65.48;101983.41;7364572;19;20038;-62
2022/10/11 04:32:29;;;;;;;0.00;0.00;;;;;;;12.39;65.61;101984.28;7367377;19;20010;-63
2022/10/11 04:34:54;;;;;;;0.00;0.00;;;;;;;12.26;65.36;101966.94;7366064;19;20610;-62
2022/10/11 04:37:20;;;;;;;0.00;0.00;;;;;;;12.39;65.73;101995.63;7365911;19;20011;-62
2022/10/11 04:39:46;;;;;;;0.00;0.00;;;;;;;12.38;65.07;101991.28;7366290;19;20011;-62
2022/10/11 04:42:11;;;;;;;0.00;0.00;;;;;;;12.34;65.05;101983.44;7365444;19;20026;-62
2022/10/11 04:44:36;;;;;;;0.00;0.00;;;;;;;12.40;65.41;101993.88;7363411;19;20034;-62
2022/10/11 04:47:03;;;;;;;0.03;0.03;;;;;;;12.39;65.04;101984.28;7363157;19;20010;-62
2022/10/11 04:49:28;;;;;;;0.00;0.00;;;;;;;12.38;65.37;101987.78;7365724;19;20010;-62
2022/10/11 04:51:53;;;;;;;0.00;0.00;;;;;;;12.29;65.63;101980.00;7366045;19;20017;-62
2022/10/11 04:54:19;;;;;;;0.03;0.03;;;;;;;12.32;65.63;101993.09;7366986;19;20339;-62
2022/10/11 04:56:44;;;;;;;0.08;0.08;;;;;;;12.40;64.71;101999.09;7364657;19;20390;-62
2022/10/11 04:59:09;;;;;;;0.00;0.00;;;;;;;12.41;65.24;101998.22;7364392;19;20026;-63
2022/10/11 05:01:35;;;;;;;0.00;0.00;;;;;;;12.38;65.98;101998.25;7364771;19;20101;-62
2022/10/11 05:04:00;;;;;;;0.00;0.00;;;;;;;12.41;65.60;102003.47;7366191;19;20022;-63
2022/10/11 05:06:26;;;;;;;0.00;0.00;;;;;;;12.42;64.83;101992.97;7364406;19;20092;-62
2022/10/11 05:08:51;;;;;;;0.05;0.05;;;;;;;12.42;64.97;102005.22;7363027;19;20007;-62
2022/10/11 05:11:17;;;;;;;0.00;0.00;;;;;;;12.44;65.61;102003.44;7364708;19;20006;-62
2022/10/11 05:13:44;;;;;;;0.00;0.00;;;;;;;12.40;65.05;101989.50;7365221;19;20637;-62
2022/10/11 05:16:10;;;;;;;0.00;0.00;;;;;;;12.44;64.21;102004.31;7365161;19;20019;-62
2022/10/11 05:18:36;;;;;;;0.00;0.00;;;;;;;12.36;64.87;101989.53;7362347;19;20727;-62
2022/10/11 05:21:07;;;;;;;0.00;0.00;;;;;;;12.46;64.28;102001.66;7365207;19;20082;-62
2022/10/11 05:23:34;;;;;;;0.08;0.08;;;;;;;12.43;65.22;101999.09;7364141;19;20011;-62
2022/10/11 05:26:00;;;;;;;0.03;0.03;;;;;;;12.45;64.44;102006.03;7363976;19;20049;-62
2022/10/11 05:28:26;;;;;;;0.00;0.00;;;;;;;12.45;64.30;102002.53;7365621;19;20496;-62
2022/10/11 05:30:52;;;;;;;0.00;0.00;;;;;;;12.32;64.70;101977.38;7364004;19;20018;-62
2022/10/11 05:33:18;;;;;;;0.03;0.03;;;;;;;12.40;65.45;101991.25;7365615;19;20011;-62
2022/10/11 05:35:43;;;;;;;0.00;0.00;;;;;;;12.44;64.73;101993.81;7363138;19;20051;-62
2022/10/11 05:38:09;;;;;;;0.00;0.00;;;;;;;12.43;65.00;101991.22;7365370;19;20055;-62
2022/10/11 05:40:36;;;;;;;0.00;0.00;;;;;;;12.44;65.38;101985.09;7364406;19;20015;-62
2022/10/11 05:43:02;;;;;;;0.00;0.00;;;;;;;12.44;65.32;101988.59;7364401;19;20006;-63
2022/10/11 05:45:28;;;;;;;0.10;0.10;;;;;;;12.40;65.49;101983.38;7363893;19;20010;-61
2022/10/11 05:47:53;;;;;;;0.00;0.00;;;;;;;12.44;64.68;101990.34;7365246;19;20006;-62
2022/10/11 05:50:19;;;;;;;0.00;0.00;;;;;;;12.39;65.08;101976.41;7361527;19;20087;-63
2022/10/11 05:52:44;;;;;;;0.00;0.00;;;;;;;12.46;64.73;101989.44;7364176;19;20020;-62
2022/10/11 05:55:09;;;;;;;0.08;0.08;;;;;;;12.39;64.60;101982.53;7362065;19;20021;-62
2022/10/11 05:57:35;;;;;;;0.00;0.00;;;;;;;12.43;64.63;101981.63;7358497;19;20010;-62
2022/10/11 06:00:00;;;;;;;0.05;0.05;;;;;;;12.41;64.47;101983.38;7357278;19;20426;-62
2022/10/11 06:02:26;;;;;;;0.00;0.00;;;;;;;12.46;64.68;101991.19;7363431;19;20006;-62
2022/10/11 06:04:51;;;;;;;0.00;0.00;;;;;;;12.49;64.29;101996.41;7362483;19;20026;-62
2022/10/11 06:07:17;;;;;;;0.00;0.00;;;;;;;12.47;64.89;101992.94;7361274;19;20437;-62
2022/10/11 06:09:42;;;;;;;0.10;0.10;;;;;;;12.50;64.81;101992.91;7360901;19;20014;-62
2022/10/11 06:12:07;;;;;;;0.00;0.00;;;;;;;12.39;64.03;101976.41;7361874;19;20018;-63
2022/10/11 06:14:33;;;;;;;0.10;0.10;;;;;;;12.50;64.22;101998.13;7361566;19;20025;-62
2022/10/11 06:16:58;;;;;;;0.05;0.05;;;;;;;12.48;64.38;101999.91;7362451;19;20618;-63
2022/10/11 06:19:24;;;;;;;0.00;0.00;;;;;;;12.47;64.99;101995.56;7360191;19;20017;-62
2022/10/11 06:21:49;;;;;;;0.00;0.00;;;;;;;12.39;65.42;101979.03;7360374;19;20035;-62
2022/10/11 06:24:16;;;;;;;0.00;0.00;;;;;;;12.50;65.42;101992.91;7360679;19;20002;-62
2022/10/11 06:26:41;;;;;;;0.00;0.00;;;;;;;12.52;65.83;101993.75;7356729;19;20549;-62
2022/10/11 06:29:07;;;;;;;0.00;0.00;;;;;;;12.53;65.90;101992.88;7357624;19;20448;-63
2022/10/11 06:31:32;;;;;;;0.00;0.00;;;;;;;12.54;65.03;101984.13;7361566;19;20007;-62
2022/10/11 06:33:58;;;;;;;0.00;0.00;;;;;;;12.55;64.86;101980.63;7365287;19;20014;-62
2022/10/11 06:36:24;;;;;;;0.00;0.00;;;;;;;12.56;65.96;101982.34;7362636;19;20018;-63
2022/10/11 06:38:54;;;;;;;0.00;0.00;;;;;;;12.59;64.55;101984.94;7366388;19;20533;-62
2022/10/11 06:41:23;;;;;;;0.10;0.10;;;;;;;12.57;64.32;101977.97;7362109;19;20053;-63
2022/10/11 06:43:49;;;;;;;0.00;0.00;;;;;;;12.56;64.09;101977.09;7366206;19;20010;-62
2022/10/11 06:46:16;;;;;;;0.00;0.00;;;;;;;12.58;64.41;101977.97;7366016;19;20781;-62
2022/10/11 06:48:43;;;;;;;0.00;0.00;;;;;;;12.59;64.62;101984.94;7366555;19;20034;-62
2022/10/11 06:51:11;;;;;;;0.00;0.00;;;;;;;12.60;64.57;101983.19;7370512;19;20473;-63
2022/10/11 06:53:36;;;;;;;0.10;0.10;;;;;;;12.51;64.07;101968.41;7367636;19;20010;-62
2022/10/11 06:56:04;;;;;;;0.00;0.00;;;;;;;12.61;64.38;101985.78;7370105;19;20045;-62
2022/10/11 06:58:29;;;;;;;0.00;0.00;;;;;;;12.58;64.49;101972.72;7364146;19;20575;-62
2022/10/11 07:00:59;;;;;;;0.00;0.00;;;;;;;12.64;65.56;101975.28;7367997;19;20014;-63
2022/10/11 07:03:24;;;;;;;0.00;0.00;;;;;;;12.64;65.84;101983.16;7368618;19;20820;-62
2022/10/11 07:05:49;;;;;;;0.00;0.00;;;;;;;12.66;65.30;101973.50;7368638;19;20080;-62
2022/10/11 07:08:15;;;;;;;0.00;0.00;;;;;;;12.68;66.06;101977.00;7361224;19;20030;-62
2022/10/11 07:10:40;;;;;;;0.00;0.00;;;;;;;12.71;66.08;101976.94;7365922;19;20015;-62
2022/10/11 07:13:06;;;;;;;0.03;0.03;;;;;;;12.74;65.03;101978.66;7370576;19;20014;-62
2022/10/11 07:15:36;;;;;;;0.03;0.03;;;;;;;12.78;65.08;101976.88;7368730;19;20466;-62
2022/10/11 07:18:02;;;;;;;0.00;0.00;;;;;;;12.78;65.71;101979.50;7371613;19;20030;-63
2022/10/11 07:20:28;;;;;;;0.10;0.10;;;;;;;12.66;66.17;101962.16;7366213;19;22321;-62
2022/10/11 07:22:53;;;;;;;0.00;0.00;;;;;;;12.71;66.20;101965.59;7368128;19;20015;-62
2022/10/11 07:25:18;;;;;;;0.00;0.00;;;;;;;12.83;66.18;101972.47;7364766;19;20086;-62
2022/10/11 07:27:44;;;;;;;0.10;0.10;;;;;;;12.73;66.55;101959.47;7366493;19;21154;-62
2022/10/11 07:30:09;;;;;;;0.00;0.00;;;;;;;12.90;65.61;101988.09;7369746;19;20018;-62
2022/10/11 07:32:35;;;;;;;0.00;0.00;;;;;;;12.92;66.03;101986.31;7366028;19;20436;-62
2022/10/11 07:35:00;;;;;;;0.10;0.10;;;;;;;12.79;65.07;101962.91;7366620;19;20074;-62
2022/10/11 07:37:26;;;;;;;0.00;0.00;;;;;;;12.96;65.45;101982.75;7369197;19;20078;-63
2022/10/11 07:39:51;;;;;;;0.00;0.00;;;;;;;12.87;65.94;101972.38;7364856;19;20018;-62
2022/10/11 07:42:16;;;;;;;0.00;0.00;;;;;;;12.87;66.41;101969.75;7364393;19;20019;-63
2022/10/11 07:44:42;;;;;;;0.00;0.00;;;;;;;13.01;66.15;101990.56;7367864;19;20006;-62
2022/10/11 07:47:07;;;;;;;0.10;0.10;;;;;;;13.00;65.80;101980.97;7363122;19;20026;-62
2022/10/11 07:49:33;;;;;;;0.00;0.00;;;;;;;12.96;66.14;101977.53;7367663;19;20030;-62
2022/10/11 07:51:58;;;;;;;0.00;0.00;;;;;;;13.05;65.96;101992.28;7365549;19;20014;-62
2022/10/11 07:54:24;;;;;;;0.10;0.10;;;;;;;13.01;66.19;101984.47;7368511;19;20503;-62
2022/10/11 07:56:49;;;;;;;0.00;0.00;;;;;;;13.03;65.86;101983.59;7366838;19;20010;-62
2022/10/11 07:59:14;;;;;;;0.00;0.00;;;;;;;13.07;65.70;101985.25;7364014;19;20034;-62
2022/10/11 08:01:40;;;;;;;0.00;0.00;;;;;;;13.05;66.35;101984.41;7364011;19;20066;-62
2022/10/11 08:04:05;;;;;;;0.00;0.00;;;;;;;13.01;66.65;101979.22;7365167;19;20030;-62
2022/10/11 08:06:31;;;;;;;0.00;0.00;;;;;;;13.03;66.67;101975.72;7361638;19;20030;-62
2022/10/11 08:08:59;;;;;;;0.00;0.00;;;;;;;13.20;66.62;102002.59;7359721;19;20557;-62
2022/10/11 08:11:25;;;;;;;;;;;;;;;13.31;66.18;101998.97;7366117;19;20034;-61
2022/10/11 08:13:51;;;;;;;0.10;0.10;;;;;;;13.29;66.67;102001.63;7353348;19;19925;-62
2022/10/11 08:16:17;;;;;;;0.00;0.00;;;;;;;13.33;66.47;102005.97;7352288;19;20010;-62
2022/10/11 08:18:43;;;;;;;0.00;0.00;;;;;;;13.36;66.03;102005.03;7350571;19;20007;-62
2022/10/11 08:21:10;;;;;;;0.10;0.10;;;;;;;13.40;66.24;102004.13;7353137;19;20010;-63
2022/10/11 08:23:36;;;;;;;0.05;0.05;;;;;;;13.31;66.70;101978.84;7352590;19;20098;-63
2022/10/11 08:26:02;;;;;;;0.05;0.05;;;;;;;13.44;65.79;102006.69;7343853;19;20002;-62
2022/10/11 08:28:28;;;;;;;0.03;0.03;;;;;;;13.47;66.20;102009.25;7356296;19;20023;-63
2022/10/11 08:30:54;;;;;;;0.00;0.00;;;;;;;13.49;65.82;102004.84;7364083;19;20010;-62
2022/10/11 08:33:22;;;;;;;0.00;0.00;;;;;;;13.54;64.78;102006.56;7361144;19;20122;-62
2022/10/11 08:35:48;;;;;;;0.00;0.00;;;;;;;13.50;64.90;101995.22;7367453;19;20022;-63
2022/10/11 08:38:13;;;;;;;0.10;0.10;;;;;;;13.44;65.14;101974.31;7361377;19;20558;-62
2022/10/11 08:40:46;;;;;;;0.00;0.00;;;;;;;13.59;65.37;102002.97;7364436;19;20033;-62
2022/10/11 08:43:27;;;;;;;0.00;0.00;;;;;;;13.63;65.29;102001.16;7364230;19;20010;-62
2022/10/11 08:45:56;;;;;;;0.10;0.10;;;;;;;13.61;65.42;101993.31;7362324;19;20690;-62
2022/10/11 08:49:01;;;;;;;0.03;0.03;;;;;;;13.73;65.69;101987.88;7359763;19;20029;-62
2022/10/11 08:51:32;;;;;;;0.00;0.00;;;;;;;13.75;64.60;101991.34;7257653;19;2004413;-63
2022/10/11 08:53:57;;;;;;;0.00;0.00;;;;;;;13.75;64.91;101996.59;7363054;19;20017;-62
2022/10/11 08:56:25;;;;;;;0.00;0.00;;;;;;;13.82;65.52;101988.63;7361772;19;20869;-63
2022/10/11 08:59:05;;;;;;;0.10;0.10;;;;;;;13.91;64.88;101988.50;7366764;19;20018;-62
2022/10/11 09:01:31;;;;;;;0.00;0.00;;;;;;;13.81;65.06;101966.75;7364495;19;20066;-62
2022/10/11 09:03:58;;;;;;;0.00;0.00;;;;;;;13.95;64.76;101985.78;7361338;19;20898;-62
2022/10/11 09:06:53;;;;;;;0.10;0.10;;;;;;;14.11;64.07;101989.03;7362816;19;20014;-62
2022/10/11 09:09:37;;;;;;;0.00;0.00;;;;;;;14.21;64.50;101987.97;7258323;19;2004470;-62
2022/10/11 09:12:25;;;;;;;0.00;0.00;;;;;;;14.27;63.94;101993.13;7363481;19;20022;-63
2022/10/11 09:14:54;;;;;;;0.00;0.00;;;;;;;14.25;62.51;101997.53;7362258;19;20014;-62
2022/10/11 09:17:53;;;;;;;0.00;0.00;;;;;;;14.32;63.47;101993.03;7362082;19;20039;-62
2022/10/11 09:20:34;;;;;;;0.00;0.00;;;;;;;14.25;63.07;101981.78;7259981;19;2004304;-62
2022/10/11 09:23:31;;;;;;;0.00;0.00;;;;;;;14.34;63.35;101990.38;7362167;19;20018;-62
2022/10/11 09:26:09;;;;;;;0.10;0.10;;;;;;;14.34;62.65;101995.63;7260233;19;2004298;-62
2022/10/11 09:28:37;;;;;;;0.00;0.00;;;;;;;14.33;62.43;102007.03;7362859;19;20380;-62
2022/10/11 09:31:03;;;;;;;0.03;0.03;;;;;;;14.35;61.72;102000.03;7361079;19;20010;-62
2022/10/11 09:33:40;;;;;;;0.10;0.10;;;;;;;14.41;62.55;101997.28;7364005;19;20481;-62
2022/10/11 09:36:45;;;;;;;0.00;0.00;;;;;;;14.45;63.33;101999.81;7362573;19;20014;-62
2022/10/11 09:39:26;;;;;;;0.00;0.00;;;;;;;14.46;61.24;102000.69;7258822;19;2004379;-63
2022/10/11 09:42:01;;;;;;;0.05;0.05;;;;;;;14.49;61.95;101992.75;7362217;19;20113;-62
2022/10/11 09:44:34;;;;;;;0.00;0.00;;;;;;;14.51;61.63;101996.25;7362128;19;20049;-62
2022/10/11 09:46:59;;;;;;;0.00;0.00;;;;;;;14.54;61.41;101990.91;7362118;19;20034;-62
2022/10/11 09:49:34;;;;;;;0.10;0.10;;;;;;;14.59;62.06;101986.44;7361395;19;20018;-62
2022/10/11 09:52:02;;;;;;;0.08;0.08;;;;;;;14.55;62.16;101969.03;7361338;19;20014;-62
2022/10/11 09:54:39;;;;;;;0.10;0.10;;;;;;;14.69;61.87;101966.09;7362324;19;20010;-62
2022/10/11 09:57:05;;;;;;;0.00;0.00;;;;;;;14.84;60.79;101983.34;7360583;19;20014;-62
2022/10/11 09:59:59;;;;;;;0.00;0.00;;;;;;;14.99;62.66;101985.66;7361415;19;20937;-62
2022/10/11 10:02:25;;;;;;;0.00;0.00;;;;;;;15.04;60.04;101978.53;7259578;19;2003952;-62
2022/10/11 10:05:21;;;;;;;0.00;0.00;;;;;;;15.21;61.17;101988.72;7361130;19;20025;-62
2022/10/11 10:07:59;;;;;;;0.05;0.05;;;;;;;15.30;60.69;101986.75;7259367;19;2004310;-62
2022/10/11 10:10:51;;;;;;;0.00;0.00;;;;;;;15.39;61.42;101974.28;7362515;19;20020;-62
2022/10/11 10:13:27;;;;;;;0.00;0.00;;;;;;;15.46;59.60;101983.75;7261678;19;2004461;-62
2022/10/11 10:15:57;;;;;;;0.00;0.00;;;;;;;15.51;59.09;101974.91;7361744;19;20010;-62
2022/10/11 10:18:29;;;;;;;0.00;0.00;;;;;;;15.60;59.32;101976.44;7362065;19;20090;-62
2022/10/11 10:21:00;;;;;;;0.00;0.00;;;;;;;15.67;58.59;101980.69;7363911;19;20018;-62
2022/10/11 10:23:31;;;;;;;0.00;0.00;;;;;;;15.66;58.03;101963.19;7363249;19;20859;-62
2022/10/11 10:26:18;;;;;;;0.00;0.00;;;;;;;15.88;59.84;101983.72;7362427;19;20049;-62
2022/10/11 10:28:54;;;;;;;;;;;;;;;15.99;61.04;101984.31;7363547;19;20019;-62
2022/10/11 10:31:23;;;;;;;0.00;0.00;;;;;;;15.99;57.32;101979.06;7361907;19;20608;-62
2022/10/11 10:33:52;;;;;;;0.00;0.00;;;;;;;16.05;56.55;101977.13;7360670;19;20023;-63
2022/10/11 10:36:31;;;;;;;0.00;0.00;;;;;;;16.12;57.57;101969.94;7361189;19;20030;-63
2022/10/11 10:39:20;;;;;;;0.00;0.00;;;;;;;16.16;58.35;101968.94;7361990;19;20022;-62
2022/10/11 10:41:46;;;;;;;0.00;0.00;;;;;;;16.13;57.37;101958.50;7362485;19;20040;-62
2022/10/11 10:44:14;;;;;;;0.00;0.00;;;;;;;16.25;56.69;101973.13;7360824;19;20031;-62
2022/10/11 10:47:23;;;;;;;0.00;0.00;;;;;;;16.41;57.93;101968.31;7359831;19;20761;-62
2022/10/11 10:50:13;;;;;;;0.00;0.00;;;;;;;16.50;58.30;101974.19;7252982;19;2005846;-62
2022/10/11 10:52:48;;;;;;;0.00;0.00;;;;;;;16.55;57.60;101972.31;7358397;19;20493;-62
2022/10/11 10:55:23;;;;;;;0.00;0.00;;;;;;;16.63;57.05;101963.34;7355483;19;20006;-62
2022/10/11 10:58:16;;;;;;;0.00;0.00;;;;;;;16.68;57.47;101964.94;7359166;19;20010;-62
2022/10/11 11:00:45;;;;;;;0.05;0.05;;;;;;;16.67;54.34;101965.81;7257884;19;2004487;-62
2022/10/11 11:03:26;;;;;;;0.00;0.00;;;;;;;16.72;54.66;101965.72;7356472;19;20038;-63
2022/10/11 11:06:07;;;;;;;0.00;0.00;;;;;;;16.58;55.45;101945.00;7361059;19;20007;-63
2022/10/11 11:09:00;;;;;;;0.00;0.00;;;;;;;16.67;55.29;101955.25;7361692;19;20722;-62
2022/10/11 11:11:30;;;;;;;0.10;0.10;;;;;;;16.66;54.22;101964.09;7256956;19;2004312;-62
2022/10/11 11:14:21;;;;;;;0.10;0.10;;;;;;;16.72;55.37;101942.84;7358089;19;20010;-63
2022/10/11 11:16:49;;;;;;;0.00;0.00;;;;;;;16.76;55.28;101949.75;7263455;19;2004467;-62
2022/10/11 11:19:42;;;;;;;0.00;0.00;;;;;;;16.84;56.37;101942.50;7367175;19;20018;-62
2022/10/11 11:22:29;;;;;;;0.03;0.03;;;;;;;16.89;56.30;101944.16;7368205;19;20120;-63
2022/10/11 11:25:26;;;;;;;0.00;0.00;;;;;;;16.94;56.10;101937.84;7367640;19;20043;-62
2022/10/11 11:27:51;;;;;;;0.00;0.00;;;;;;;16.99;52.57;101935.06;7264627;19;2004521;-63
2022/10/11 11:30:21;;;;;;;0.03;0.03;;;;;;;17.06;52.95;101936.59;7366635;19;20010;-62
2022/10/11 11:32:57;;;;;;;0.10;0.10;;;;;;;17.07;54.19;101927.75;7365498;19;20027;-62
2022/10/11 11:35:42;;;;;;;0.00;0.00;;;;;;;17.18;54.22;101941.47;7368461;19;20030;-62
2022/10/11 11:38:11;;;;;;;0.00;0.00;;;;;;;17.16;52.66;101938.03;7363689;19;20103;-62
2022/10/11 11:40:42;;;;;;;0.00;0.00;;;;;;;17.16;52.75;101939.81;7366325;19;20832;-62